Time;durP1;ratioP1;P1;durP2;ratioP2;P2;SDS_P1;SDS_P2;PMS_P1;PMS_P2;Temp;Humidity;BMP_temperature;BMP_pressure;BME280_temperature;BME280_humidity;BME280_pressure;Samples;Min_cycle;Max_cycle;Signal;HPM_P1;HPM_P2
2022/09/23 00:00:37;;;;;;;5.80;3.15;;;13.80;99.90;;;;;;5052866;28;20021;-47
2022/09/23 00:03:03;;;;;;;3.78;2.75;;;13.70;99.90;;;;;;5052776;28;20067;-44
2022/09/23 00:05:30;;;;;;;5.53;2.75;;;13.70;99.90;;;;;;5052745;28;20549;-46
2022/09/23 00:07:57;;;;;;;5.43;3.00;;;13.70;99.90;;;;;;5052635;28;20025;-46
2022/09/23 00:10:25;;;;;;;4.32;2.78;;;13.70;99.90;;;;;;5052748;28;20053;-50
2022/09/23 00:12:51;;;;;;;6.05;2.60;;;13.60;99.90;;;;;;5052308;28;20087;-46
2022/09/23 00:15:17;;;;;;;7.47;2.90;;;13.70;99.90;;;;;;5052369;28;20108;-44
2022/09/23 00:17:43;;;;;;;5.20;2.88;;;13.60;99.90;;;;;;5052479;28;20024;-44
2022/09/23 00:20:10;;;;;;;5.82;3.17;;;13.60;99.90;;;;;;5052346;28;20037;-45
2022/09/23 00:22:36;;;;;;;5.13;3.20;;;13.60;99.90;;;;;;5052279;28;20506;-47
2022/09/23 00:25:09;;;;;;;4.35;2.63;;;13.60;99.90;;;;;;5052391;28;20048;-49
2022/09/23 00:27:36;;;;;;;4.82;2.92;;;13.60;99.90;;;;;;5052375;28;20114;-47
2022/09/23 00:30:04;;;;;;;4.35;2.70;;;13.90;99.90;;;;;;5052137;28;20029;-44
2022/09/23 00:32:29;;;;;;;6.20;3.10;;;13.60;99.90;;;;;;5051996;28;20032;-44
2022/09/23 00:34:55;;;;;;;5.07;2.85;;;13.60;99.90;;;;;;5052248;28;20109;-45
2022/09/23 00:37:21;;;;;;;5.00;3.22;;;13.50;99.90;;;;;;5051402;28;20025;-45
2022/09/23 00:39:46;;;;;;;3.83;2.60;;;13.60;99.90;;;;;;5051852;28;20028;-48
2022/09/23 00:42:15;;;;;;;6.47;3.20;;;13.70;99.90;;;;;;5051740;28;20021;-47
2022/09/23 00:44:45;;;;;;;5.43;3.50;;;13.60;99.90;;;;;;5052153;28;20589;-50
2022/09/23 00:47:28;;;;;;;5.38;3.03;;;13.60;99.90;;;;;;5051839;28;20053;-44
2022/09/23 00:50:08;;;;;;;6.15;3.03;;;13.60;99.90;;;;;;5051747;28;20051;-49
2022/09/23 00:52:35;;;;;;;6.53;3.33;;;13.60;99.90;;;;;;5051834;28;20072;-52
2022/09/23 00:55:06;;;;;;;4.80;3.10;;;13.50;99.90;;;;;;5051733;28;20653;-50
2022/09/23 00:57:33;;;;;;;6.10;2.80;;;13.50;99.90;;;;;;5051497;28;20476;-46
2022/09/23 01:00:00;;;;;;;7.47;2.90;;;13.50;99.90;;;;;;5050439;28;20029;-51
2022/09/23 01:02:27;;;;;;;7.20;3.30;;;13.50;99.90;;;;;;5051710;28;20106;-44
2022/09/23 01:04:53;;;;;;;5.60;3.10;;;13.50;99.90;;;;;;5051557;28;20373;-46
2022/09/23 01:07:19;;;;;;;6.57;3.45;;;13.50;99.90;;;;;;5051578;28;20033;-44
2022/09/23 01:09:47;;;;;;;6.88;3.00;;;13.60;99.90;;;;;;5051552;28;20138;-44
2022/09/23 01:12:28;;;;;;;6.90;3.40;;;13.60;99.90;;;;;;5051577;28;20496;-44
2022/09/23 01:15:14;;;;;;;6.45;3.38;;;13.60;99.90;;;;;;5051434;28;20146;-44
2022/09/23 01:17:52;;;;;;;11.77;3.72;;;13.60;99.90;;;;;;5051366;28;20479;-47
2022/09/23 01:20:27;;;;;;;7.03;3.78;;;13.50;99.90;;;;;;5051355;28;20491;-44
2022/09/23 01:23:04;;;;;;;4.57;2.80;;;13.50;99.90;;;;;;5051457;28;20059;-44
2022/09/23 01:26:00;;;;;;;5.20;3.30;;;13.50;99.90;;;;;;5051216;28;20104;-44
2022/09/23 01:28:25;;;;;;;4.90;2.72;;;13.50;99.90;;;;;;5050857;28;20510;-44
2022/09/23 01:31:20;;;;;;;7.18;2.97;;;13.50;99.90;;;;;;5051317;28;20091;-43
2022/09/23 01:33:51;;;;;;;6.25;2.80;;;13.50;99.90;;;;;;5051194;28;20108;-46
2022/09/23 01:36:24;;;;;;;4.13;2.72;;;13.50;99.90;;;;;;5050987;28;20037;-45
2022/09/23 01:39:16;;;;;;;4.32;2.60;;;13.40;99.90;;;;;;5051224;28;20064;-45
2022/09/23 01:41:54;;;;;;;7.82;3.83;;;13.40;99.90;;;;;;5051086;28;20051;-44
2022/09/23 01:44:19;;;;;;;4.78;3.08;;;13.40;99.90;;;;;;5050990;28;20036;-48
2022/09/23 01:46:53;;;;;;;6.60;3.63;;;13.40;99.90;;;;;;5051009;28;20025;-44
2022/09/23 01:49:27;;;;;;;4.25;2.80;;;13.40;99.90;;;;;;5050235;28;20051;-52
2022/09/23 01:52:00;;;;;;;5.85;3.30;;;13.40;99.90;;;;;;5050872;28;20040;-44
2022/09/23 01:54:38;;;;;;;6.55;2.90;;;13.40;99.90;;;;;;5050803;28;20043;-50
2022/09/23 01:57:26;;;;;;;5.65;3.10;;;13.40;99.90;;;;;;5050600;28;20025;-45
2022/09/23 01:59:59;;;;;;;8.85;3.65;;;13.40;99.90;;;;;;5050664;28;20021;-47
2022/09/23 02:02:49;;;;;;;6.93;3.25;;;13.40;99.90;;;;;;5050917;28;20024;-46
2022/09/23 02:05:42;;;;;;;4.72;2.97;;;13.40;99.90;;;;;;5037048;28;20107;-44
2022/09/23 02:08:28;;;;;;;4.15;2.92;;;13.40;99.90;;;;;;5050136;28;20048;-48
2022/09/23 02:11:07;;;;;;;7.57;3.45;;;13.40;99.90;;;;;;5050818;28;20079;-48
2022/09/23 02:13:40;;;;;;;6.55;3.20;;;13.40;99.90;;;;;;5050647;28;20399;-44
2022/09/23 02:16:21;;;;;;;5.47;3.17;;;13.40;99.90;;;;;;5050766;28;20025;-49
2022/09/23 02:18:54;;;;;;;5.93;3.40;;;13.40;99.90;;;;;;5050427;28;20021;-48
2022/09/23 02:21:24;;;;;;;4.38;3.03;;;13.50;99.90;;;;;;5050670;28;20053;-48
2022/09/23 02:24:00;;;;;;;7.88;3.33;;;13.50;99.90;;;;;;5050486;28;20024;-47
2022/09/23 02:26:53;;;;;;;5.05;3.20;;;13.50;99.90;;;;;;5050422;28;20075;-45
2022/09/23 02:29:23;;;;;;;5.75;4.00;;;13.50;99.90;;;;;;5044063;28;20104;-48
2022/09/23 02:31:55;;;;;;;5.65;3.22;;;13.50;99.90;;;;;;5050493;28;20040;-50
2022/09/23 02:34:35;;;;;;;6.50;3.10;;;13.50;99.90;;;;;;5050613;28;20092;-44
2022/09/23 02:37:34;;;;;;;6.70;2.97;;;13.50;99.90;;;;;;5050442;28;20025;-45
2022/09/23 02:40:24;;;;;;;6.38;3.22;;;14.00;99.90;;;;;;5050315;28;20033;-49
2022/09/23 02:43:04;;;;;;;7.43;3.70;;;13.50;99.90;;;;;;5038088;28;20013;-47
2022/09/23 02:45:29;;;;;;;;;;;13.60;99.90;;;;;;5050799;28;20028;-50
2022/09/23 02:48:20;;;;;;;6.22;3.47;;;13.50;99.90;;;;;;5050394;28;20047;-45
2022/09/23 02:50:46;;;;;;;7.30;3.60;;;13.60;99.90;;;;;;5050339;28;20086;-48
2022/09/23 02:53:14;;;;;;;5.60;3.60;;;13.60;99.90;;;;;;5050046;28;20112;-44
2022/09/23 02:55:41;;;;;;;6.68;3.53;;;13.60;99.90;;;;;;5050588;28;20029;-44
2022/09/23 02:58:08;;;;;;;5.20;3.17;;;13.70;99.90;;;;;;5049815;28;20511;-48
2022/09/23 03:00:40;;;;;;;6.38;3.30;;;13.60;99.90;;;;;;5050495;28;20025;-44
2022/09/23 03:03:22;;;;;;;5.28;3.03;;;13.60;99.90;;;;;;5052730;28;20029;-44
2022/09/23 03:05:55;;;;;;;8.25;3.55;;;13.60;99.90;;;;;;5053595;28;20045;-46
2022/09/23 03:08:58;;;;;;;6.03;3.58;;;13.60;99.90;;;;;;5053730;28;20499;-44
2022/09/23 03:11:24;;;;;;;6.45;3.50;;;13.60;99.90;;;;;;5053566;28;20052;-48
2022/09/23 03:14:31;;;;;;;6.60;3.67;;;13.60;99.90;;;;;;5053805;28;20025;-47
2022/09/23 03:17:30;;;;;;;8.15;3.70;;;13.60;99.90;;;;;;5053772;28;20025;-47
2022/09/23 03:20:04;;;;;;;7.50;3.63;;;13.60;99.90;;;;;;5001284;28;20121;-44
2022/09/23 03:22:40;;;;;;;5.43;3.40;;;13.70;99.90;;;;;;5053329;28;20104;-47
2022/09/23 03:25:11;;;;;;;5.00;3.22;;;13.60;99.90;;;;;;5053794;28;20021;-44
2022/09/23 03:27:40;;;;;;;5.18;3.63;;;13.70;99.90;;;;;;5053006;28;20021;-44
2022/09/23 03:30:07;;;;;;;6.95;3.47;;;13.60;99.90;;;;;;5053423;28;20503;-43
2022/09/23 03:32:35;;;;;;;6.25;3.45;;;13.60;99.90;;;;;;5053133;28;20438;-47
2022/09/23 03:35:02;;;;;;;5.00;3.45;;;13.60;99.90;;;;;;5053352;28;20025;-49
2022/09/23 03:37:40;;;;;;;6.95;3.92;;;13.60;99.90;;;;;;5052920;28;20017;-43
2022/09/23 03:40:19;;;;;;;5.78;3.22;;;13.70;99.90;;;;;;5053176;28;20029;-49
2022/09/23 03:42:47;;;;;;;6.93;3.38;;;13.60;99.90;;;;;;5053115;28;20025;-47
2022/09/23 03:45:18;;;;;;;5.07;3.70;;;13.60;99.90;;;;;;5053223;28;20205;-49
2022/09/23 03:47:44;;;;;;;6.00;3.50;;;13.70;99.90;;;;;;5052914;28;20029;-44
2022/09/23 03:50:16;;;;;;;6.07;3.95;;;13.70;99.90;;;;;;5053069;28;20480;-47
2022/09/23 03:52:42;;;;;;;4.85;3.15;;;13.70;99.90;;;;;;5052745;28;20461;-52
2022/09/23 03:55:09;;;;;;;6.32;3.75;;;13.70;99.90;;;;;;5053021;28;20536;-46
2022/09/23 03:57:35;;;;;;;5.55;3.80;;;13.70;99.90;;;;;;5052597;28;20519;-44
2022/09/23 04:00:02;;;;;;;6.43;3.75;;;13.70;99.90;;;;;;5052548;28;20115;-43
2022/09/23 04:02:28;;;;;;;7.45;3.72;;;13.70;99.90;;;;;;5052879;28;20096;-44
2022/09/23 04:04:54;;;;;;;9.70;4.10;;;13.80;99.90;;;;;;5052609;28;20106;-44
2022/09/23 04:07:20;;;;;;;6.63;3.83;;;13.80;99.90;;;;;;5052708;28;20021;-43
2022/09/23 04:09:46;;;;;;;5.00;3.42;;;13.70;99.90;;;;;;5052576;28;20025;-44
2022/09/23 04:12:13;;;;;;;8.80;3.63;;;13.70;99.90;;;;;;5052397;28;20446;-45
2022/09/23 04:14:39;;;;;;;7.28;3.63;;;14.40;99.90;;;;;;5052567;28;20049;-44
2022/09/23 04:17:05;;;;;;;5.72;3.58;;;13.70;99.90;;;;;;5045702;28;20106;-44
2022/09/23 04:19:31;;;;;;;8.50;4.28;;;13.70;99.90;;;;;;5046380;28;20025;-46
2022/09/23 04:21:56;;;;;;;7.53;4.60;;;13.70;99.90;;;;;;5049243;28;20388;-46
2022/09/23 04:24:22;;;;;;;7.63;4.20;;;13.70;99.90;;;;;;5051858;28;20096;-46
2022/09/23 04:26:53;;;;;;;6.88;4.28;;;13.70;99.90;;;;;;5050748;28;20104;-44
2022/09/23 04:29:19;;;;;;;6.90;4.60;;;13.70;99.90;;;;;;5043882;28;20028;-44
2022/09/23 04:31:45;;;;;;;8.35;4.13;;;13.70;99.90;;;;;;5052227;28;20025;-44
2022/09/23 04:34:11;;;;;;;9.75;4.40;;;13.70;99.90;;;;;;5052107;28;20035;-47
2022/09/23 04:36:37;;;;;;;6.40;4.82;;;13.80;99.90;;;;;;5051313;28;20060;-48
2022/09/23 04:39:03;;;;;;;9.52;5.25;;;13.80;99.90;;;;;;5048620;28;20064;-46
2022/09/23 04:41:29;;;;;;;8.05;5.18;;;13.80;99.90;;;;;;5050342;28;20111;-44
2022/09/23 04:43:56;;;;;;;7.85;4.70;;;13.80;99.90;;;;;;5051684;28;20414;-51
2022/09/23 04:46:22;;;;;;;9.32;4.72;;;13.80;99.90;;;;;;5049362;28;20032;-44
2022/09/23 04:48:48;;;;;;;9.52;5.15;;;13.80;99.90;;;;;;5050725;28;20062;-45
2022/09/23 04:51:16;;;;;;;7.75;4.47;;;13.80;99.90;;;;;;5047730;28;20065;-43
2022/09/23 04:53:43;;;;;;;7.03;4.82;;;13.80;99.90;;;;;;5039024;28;20116;-46
2022/09/23 04:56:15;;;;;;;8.10;5.03;;;13.80;99.90;;;;;;5048783;28;20361;-44
2022/09/23 04:58:42;;;;;;;7.15;4.70;;;13.80;99.90;;;;;;5044553;28;20508;-43
2022/09/23 05:01:11;;;;;;;6.25;4.60;;;13.80;99.90;;;;;;5047305;28;20033;-44
2022/09/23 05:03:38;;;;;;;8.52;4.90;;;13.80;99.90;;;;;;5050575;28;20545;-43
2022/09/23 05:06:04;;;;;;;13.05;5.10;;;13.80;99.90;;;;;;5050982;28;20388;-44
2022/09/23 05:08:30;;;;;;;9.07;5.03;;;13.80;99.90;;;;;;5049878;28;20033;-43
2022/09/23 05:10:57;;;;;;;7.32;5.50;;;13.80;99.90;;;;;;5050227;28;20160;-43
2022/09/23 05:13:23;;;;;;;8.57;5.70;;;13.80;99.90;;;;;;5051425;28;20066;-45
2022/09/23 05:15:55;;;;;;;7.70;5.45;;;13.80;99.90;;;;;;5051699;28;20017;-47
2022/09/23 05:18:21;;;;;;;9.38;5.22;;;13.80;99.90;;;;;;5049464;28;20040;-44
2022/09/23 05:20:53;;;;;;;9.88;5.22;;;13.70;99.90;;;;;;5049576;28;20021;-49
2022/09/23 05:23:18;;;;;;;6.68;4.82;;;13.70;99.90;;;;;;5049273;28;20107;-44
2022/09/23 05:25:45;;;;;;;7.63;5.78;;;13.70;99.90;;;;;;5049000;28;20448;-50
2022/09/23 05:28:10;;;;;;;8.02;5.15;;;13.70;99.90;;;;;;5049320;28;20029;-48
2022/09/23 05:30:36;;;;;;;8.60;5.38;;;13.70;99.90;;;;;;5049303;28;20035;-47
2022/09/23 05:33:02;;;;;;;9.40;5.90;;;13.70;99.90;;;;;;5050572;28;20060;-44
2022/09/23 05:35:27;;;;;;;9.00;5.13;;;13.80;99.90;;;;;;5050928;28;20514;-46
2022/09/23 05:37:53;;;;;;;10.30;6.20;;;13.80;99.90;;;;;;5050896;28;20028;-46
2022/09/23 05:40:18;;;;;;;7.95;6.05;;;13.80;99.90;;;;;;5050899;28;20086;-47
2022/09/23 05:42:44;;;;;;;11.18;6.70;;;13.80;99.90;;;;;;5050690;28;20071;-47
2022/09/23 05:45:10;;;;;;;8.70;6.13;;;13.90;99.90;;;;;;5051118;28;20372;-44
2022/09/23 05:47:37;;;;;;;13.30;7.07;;;13.90;99.90;;;;;;5050792;28;20032;-47
2022/09/23 05:50:03;;;;;;;11.20;6.88;;;13.90;99.90;;;;;;5031148;28;20064;-47
2022/09/23 05:52:28;;;;;;;10.38;7.38;;;13.90;99.90;;;;;;5030720;28;20096;-52
2022/09/23 05:54:54;;;;;;;8.35;6.50;;;14.00;99.90;;;;;;5031084;28;20021;-49
2022/09/23 05:57:20;;;;;;;9.85;6.95;;;14.00;99.90;;;;;;5030703;28;20076;-44
2022/09/23 05:59:46;;;;;;;9.02;6.70;;;14.00;99.90;;;;;;5030740;28;20013;-45
2022/09/23 06:02:13;;;;;;;10.90;6.90;;;14.00;99.90;;;;;;5030878;28;20090;-44
2022/09/23 06:04:39;;;;;;;11.13;7.30;;;14.00;99.90;;;;;;5030696;28;20041;-48
2022/09/23 06:07:04;;;;;;;13.00;7.72;;;14.00;99.90;;;;;;5030918;28;20022;-44
2022/09/23 06:09:30;;;;;;;11.50;7.68;;;14.00;99.90;;;;;;5030762;28;20807;-47
2022/09/23 06:11:55;;;;;;;12.23;7.88;;;14.10;99.90;;;;;;5030664;28;20022;-45
2022/09/23 06:14:21;;;;;;;11.98;7.15;;;14.10;99.90;;;;;;5030740;28;20079;-47
2022/09/23 06:16:47;;;;;;;10.15;7.03;;;14.10;99.90;;;;;;5030517;28;20022;-47
2022/09/23 06:19:12;;;;;;;14.48;7.20;;;14.10;99.90;;;;;;5030562;28;20447;-44
2022/09/23 06:21:39;;;;;;;12.38;7.47;;;14.20;99.90;;;;;;5030685;28;20022;-46
2022/09/23 06:24:06;;;;;;;10.35;6.82;;;14.30;99.90;;;;;;5030662;28;20469;-47
2022/09/23 06:26:33;;;;;;;10.95;7.47;;;14.30;99.90;;;;;;5030424;28;20112;-44
2022/09/23 06:29:01;;;;;;;10.55;7.38;;;14.30;99.90;;;;;;5030275;28;20535;-47
2022/09/23 06:31:27;;;;;;;13.45;8.63;;;14.30;99.90;;;;;;5030589;28;20064;-45
2022/09/23 06:33:53;;;;;;;19.67;11.35;;;14.30;99.90;;;;;;5030279;28;20064;-51
2022/09/23 06:36:18;;;;;;;21.20;12.63;;;14.30;99.90;;;;;;5031187;28;20036;-51
2022/09/23 06:38:44;;;;;;;21.95;13.25;;;14.30;99.90;;;;;;5034161;28;20047;-44
2022/09/23 06:41:10;;;;;;;19.88;13.55;;;14.30;99.90;;;;;;5034174;28;20041;-44
2022/09/23 06:43:36;;;;;;;18.45;11.95;;;14.30;99.90;;;;;;5034401;28;20026;-53
2022/09/23 06:46:04;;;;;;;14.38;9.00;;;14.40;99.90;;;;;;5034045;28;20401;-46
2022/09/23 06:48:34;;;;;;;10.82;7.97;;;14.40;99.90;;;;;;5041609;28;20036;-44
2022/09/23 06:51:01;;;;;;;10.88;6.50;;;14.40;99.90;;;;;;5053799;28;20029;-47
2022/09/23 06:53:30;;;;;;;11.02;7.38;;;14.40;99.90;;;;;;5054253;28;20041;-46
2022/09/23 06:55:57;;;;;;;;;;;14.50;99.90;;;;;;5054648;28;20122;-44
2022/09/23 06:58:23;;;;;;;10.77;7.07;;;14.50;99.90;;;;;;5054109;28;19904;-44
2022/09/23 07:00:49;;;;;;;9.27;6.70;;;14.50;99.90;;;;;;5053722;28;20064;-43
2022/09/23 07:03:14;;;;;;;11.05;6.50;;;14.50;99.90;;;;;;5053709;28;20654;-47
2022/09/23 07:05:40;;;;;;;9.80;6.93;;;14.50;99.90;;;;;;5053799;28;20068;-44
2022/09/23 07:08:08;;;;;;;9.77;7.20;;;14.50;99.90;;;;;;5053576;28;20452;-44
2022/09/23 07:10:35;;;;;;;9.55;6.35;;;14.60;99.90;;;;;;5053436;28;20057;-46
2022/09/23 07:13:02;;;;;;;9.10;6.40;;;14.60;99.90;;;;;;5053697;28;20055;-46
2022/09/23 07:15:28;;;;;;;9.98;6.75;;;14.60;99.90;;;;;;5053596;28;20017;-47
2022/09/23 07:17:54;;;;;;;10.15;6.75;;;14.70;99.90;;;;;;5053600;28;20031;-47
2022/09/23 07:20:20;;;;;;;8.75;6.20;;;14.70;99.90;;;;;;5053284;28;20017;-43
2022/09/23 07:22:51;;;;;;;8.95;6.32;;;14.80;99.90;;;;;;5053146;28;20037;-45
2022/09/23 07:25:18;;;;;;;7.82;5.68;;;14.80;99.90;;;;;;5052555;28;20025;-47
2022/09/23 07:27:47;;;;;;;10.00;6.03;;;14.80;99.90;;;;;;5052410;28;20021;-46
2022/09/23 07:30:13;;;;;;;8.07;6.10;;;14.90;99.90;;;;;;5049928;28;20039;-47
2022/09/23 07:32:39;;;;;;;8.65;5.88;;;14.90;99.90;;;;;;5049579;28;20040;-44
2022/09/23 07:35:05;;;;;;;7.40;5.50;;;14.90;99.90;;;;;;5052835;28;20394;-46
2022/09/23 07:37:31;;;;;;;10.63;5.43;;;15.00;99.90;;;;;;5052746;28;20059;-44
2022/09/23 07:39:56;;;;;;;6.90;5.30;;;14.90;99.90;;;;;;5053130;28;20048;-46
2022/09/23 07:42:22;;;;;;;7.43;5.22;;;15.00;99.90;;;;;;5053084;28;20029;-48
2022/09/23 07:44:48;;;;;;;7.75;5.45;;;15.00;99.90;;;;;;5052398;28;20033;-45
2022/09/23 07:47:16;;;;;;;6.93;5.47;;;15.10;99.90;;;;;;5051698;28;20028;-41
2022/09/23 07:49:42;;;;;;;9.75;5.78;;;15.10;99.90;;;;;;5053143;28;20059;-48
2022/09/23 07:52:07;;;;;;;8.43;5.95;;;15.20;99.90;;;;;;5052864;28;20036;-46
2022/09/23 07:54:34;;;;;;;9.20;5.57;;;15.20;99.90;;;;;;5051974;28;20025;-48
2022/09/23 07:57:00;;;;;;;6.45;5.22;;;15.20;99.90;;;;;;5052215;28;20064;-48
2022/09/23 07:59:26;;;;;;;10.32;5.47;;;15.20;99.90;;;;;;5052243;28;20059;-43
2022/09/23 08:01:52;;;;;;;8.18;5.57;;;15.20;99.90;;;;;;5052694;28;20029;-44
2022/09/23 08:04:20;;;;;;;7.85;6.10;;;15.20;99.90;;;;;;5052652;28;20021;-43
2022/09/23 08:06:53;;;;;;;6.15;5.25;;;15.20;99.90;;;;;;5052264;28;20415;-47
2022/09/23 08:09:21;;;;;;;8.32;6.53;;;15.20;99.90;;;;;;5051310;28;20021;-46
2022/09/23 08:11:48;;;;;;;8.85;5.82;;;15.20;99.90;;;;;;5052551;28;20025;-48
2022/09/23 08:14:16;;;;;;;6.35;5.20;;;15.20;99.90;;;;;;5052578;28;20061;-45
2022/09/23 08:16:44;;;;;;;8.55;5.30;;;15.30;99.90;;;;;;5052571;28;20071;-49
2022/09/23 08:19:10;;;;;;;7.20;5.10;;;15.20;99.90;;;;;;5052807;28;20039;-48
2022/09/23 08:21:38;;;;;;;9.73;5.28;;;15.30;99.90;;;;;;5052486;28;20029;-50
2022/09/23 08:24:05;;;;;;;11.02;5.20;;;15.20;99.90;;;;;;5051786;28;20110;-49
2022/09/23 08:26:33;;;;;;;10.38;5.35;;;15.30;99.90;;;;;;5052037;28;20503;-50
2022/09/23 08:28:59;;;;;;;10.85;5.25;;;15.30;99.90;;;;;;5052118;28;20056;-47
2022/09/23 08:31:25;;;;;;;8.25;4.82;;;15.20;99.90;;;;;;5052140;28;20029;-51
2022/09/23 08:33:55;;;;;;;6.35;5.07;;;15.20;99.90;;;;;;5049980;28;20043;-47
2022/09/23 08:36:21;;;;;;;6.03;4.25;;;15.30;99.90;;;;;;5051633;28;20124;-44
2022/09/23 08:38:47;;;;;;;5.72;4.30;;;15.20;99.90;;;;;;5051854;28;20117;-42
2022/09/23 08:41:13;;;;;;;6.20;3.72;;;15.30;99.90;;;;;;5051985;28;20029;-42
2022/09/23 08:43:44;;;;;;;6.70;3.63;;;15.30;99.90;;;;;;5051894;28;20024;-41
2022/09/23 08:46:10;;;;;;;5.28;3.53;;;15.40;99.90;;;;;;5051810;28;20021;-41
2022/09/23 08:48:41;;;;;;;4.60;3.42;;;15.40;99.90;;;;;;5051683;28;20052;-41
2022/09/23 08:51:14;;;;;;;6.25;4.03;;;15.50;99.90;;;;;;5050276;28;20214;-44
2022/09/23 08:53:41;;;;;;;6.28;4.20;;;15.60;99.90;;;;;;5048586;28;20037;-50
2022/09/23 08:56:16;;;;;;;6.80;4.18;;;15.60;99.90;;;;;;5051146;28;20045;-46
2022/09/23 08:59:15;;;;;;;5.55;4.25;;;15.70;99.90;;;;;;5050740;28;20028;-47
2022/09/23 09:01:41;;;;;;;6.40;4.10;;;15.70;99.90;;;;;;5051125;28;20119;-49
2022/09/23 09:04:13;;;;;;;6.35;3.90;;;15.70;99.90;;;;;;5051299;28;20111;-47
2022/09/23 09:07:08;;;;;;;5.45;3.88;;;15.70;99.90;;;;;;5051796;28;20025;-44
2022/09/23 09:09:54;;;;;;;5.68;3.80;;;15.80;99.90;;;;;;5036194;28;20025;-47
2022/09/23 09:12:36;;;;;;;5.35;3.40;;;15.80;99.90;;;;;;5038176;28;20101;-44
2022/09/23 09:15:22;;;;;;;6.70;3.70;;;15.80;99.90;;;;;;5051409;28;20024;-45
2022/09/23 09:18:00;;;;;;;4.35;3.10;;;15.80;99.90;;;;;;5051541;28;20108;-49
2022/09/23 09:20:28;;;;;;;5.55;3.50;;;15.70;99.90;;;;;;5050594;28;20082;-48
2022/09/23 09:23:01;;;;;;;4.68;3.00;;;15.70;99.90;;;;;;5051194;28;20468;-44
2022/09/23 09:25:51;;;;;;;5.45;2.90;;;15.80;99.90;;;;;;5050799;28;20029;-44
2022/09/23 09:28:29;;;;;;;4.40;2.83;;;15.70;99.90;;;;;;5050618;28;20021;-46
2022/09/23 09:30:58;;;;;;;7.00;3.00;;;15.60;99.90;;;;;;5050554;28;20025;-50
2022/09/23 09:33:50;;;;;;;3.53;2.47;;;15.60;99.90;;;;;;5050075;28;20037;-45
2022/09/23 09:36:41;;;;;;;3.85;2.50;;;15.50;99.90;;;;;;5050994;28;20025;-49
2022/09/23 09:39:12;;;;;;;4.50;2.60;;;15.50;99.90;;;;;;5044052;28;20071;-44
2022/09/23 09:41:43;;;;;;;5.03;3.25;;;15.50;99.90;;;;;;5049716;28;20040;-47
2022/09/23 09:44:23;;;;;;;5.65;3.00;;;15.60;99.90;;;;;;5050660;28;20021;-51
2022/09/23 09:47:27;;;;;;;6.03;2.65;;;15.50;99.90;;;;;;5050923;28;20032;-46
2022/09/23 09:50:06;;;;;;;4.13;2.10;;;15.50;99.90;;;;;;5032270;28;20045;-44
2022/09/23 09:52:31;;;;;;;3.55;2.10;;;15.50;99.90;;;;;;5050066;28;20065;-51
2022/09/23 09:55:12;;;;;;;3.50;1.90;;;15.50;99.90;;;;;;5050243;28;20052;-45
2022/09/23 09:57:41;;;;;;;4.72;2.42;;;15.40;99.90;;;;;;5050798;28;20484;-49
2022/09/23 10:00:25;;;;;;;4.63;2.30;;;15.40;99.90;;;;;;5050300;28;20067;-49
2022/09/23 10:03:02;;;;;;;4.00;2.17;;;15.50;99.90;;;;;;5050536;28;20037;-49
2022/09/23 10:05:56;;;;;;;4.15;2.28;;;15.50;99.90;;;;;;5050342;28;20021;-49
2022/09/23 10:08:25;;;;;;;4.95;2.53;;;15.60;99.90;;;;;;5048505;28;20569;-48
2022/09/23 10:11:03;;;;;;;4.38;2.40;;;15.60;99.90;;;;;;5051089;28;20120;-44
2022/09/23 10:13:30;;;;;;;5.38;2.25;;;15.70;99.90;;;;;;5052836;28;20072;-48
2022/09/23 10:15:58;;;;;;;6.32;2.33;;;15.70;99.90;;;;;;5051659;28;20365;-47
2022/09/23 10:18:27;;;;;;;3.55;2.17;;;15.70;99.90;;;;;;5052581;28;20052;-44
2022/09/23 10:21:09;;;;;;;4.03;2.37;;;15.80;99.90;;;;;;5053364;28;20040;-51
2022/09/23 10:23:41;;;;;;;4.65;2.20;;;15.80;99.90;;;;;;5053072;28;20029;-47
2022/09/23 10:26:07;;;;;;;6.90;2.20;;;15.80;99.90;;;;;;5054423;28;20033;-44
2022/09/23 10:28:54;;;;;;;4.65;2.50;;;15.90;99.90;;;;;;5054562;28;20573;-51
2022/09/23 10:31:27;;;;;;;6.80;2.10;;;15.80;99.90;;;;;;5054129;28;20017;-45
2022/09/23 10:33:59;;;;;;;6.75;2.88;;;15.80;99.90;;;;;;5054212;28;20029;-48
2022/09/23 10:36:30;;;;;;;5.03;2.20;;;15.80;99.90;;;;;;5054403;28;20060;-49
2022/09/23 10:48:34;;;;;;;3.80;2.40;;;16.20;99.90;;;;;;5053793;28;20040;-51
2022/09/23 10:51:06;;;;;;;4.50;2.38;;;16.40;99.90;;;;;;5053331;28;20503;-44
2022/09/23 10:53:53;;;;;;;4.47;2.40;;;16.60;99.90;;;;;;5053701;28;20032;-50
2022/09/23 10:56:53;;;;;;;4.03;2.47;;;16.90;99.90;;;;;;5053405;28;20048;-49
2022/09/23 10:59:19;;;;;;;5.55;3.10;;;17.10;99.90;;;;;;5020780;28;20488;-44
2022/09/23 11:02:14;;;;;;;6.22;3.28;;;17.20;99.90;;;;;;5053547;28;20017;-42
2022/09/23 11:04:51;;;;;;;5.72;3.13;;;17.20;99.90;;;;;;5053729;28;20049;-50
2022/09/23 11:07:24;;;;;;;4.85;3.33;;;17.10;99.90;;;;;;5053598;28;20027;-45
2022/09/23 11:10:11;;;;;;;4.45;3.35;;;17.10;99.90;;;;;;5050954;28;20025;-47
2022/09/23 11:12:43;;;;;;;3.78;2.83;;;17.20;99.90;;;;;;5053509;28;20033;-45
2022/09/23 11:15:28;;;;;;;4.53;2.95;;;17.20;99.90;;;;;;5053598;28;20029;-51
2022/09/23 11:18:17;;;;;;;4.07;2.97;;;17.30;99.90;;;;;;5053351;28;20032;-49
2022/09/23 11:20:55;;;;;;;3.95;2.90;;;17.30;99.90;;;;;;5053154;28;20479;-51
2022/09/23 11:23:33;;;;;;;5.47;2.90;;;17.50;99.90;;;;;;5052600;28;20487;-42
2022/09/23 11:26:05;;;;;;;6.30;3.10;;;17.70;99.90;;;;;;5053183;28;20024;-43
2022/09/23 11:28:33;;;;;;;5.25;2.90;;;17.60;99.90;;;;;;5053483;28;20032;-45
2022/09/23 11:31:23;;;;;;;4.20;2.90;;;17.70;99.90;;;;;;5053246;28;20032;-46
2022/09/23 11:34:04;;;;;;;5.05;2.65;;;17.70;99.90;;;;;;5051962;28;20120;-46
2022/09/23 11:36:58;;;;;;;6.18;2.90;;;17.70;99.90;;;;;;5052399;28;20028;-45
2022/09/23 11:39:31;;;;;;;4.30;2.78;;;17.70;99.90;;;;;;5050609;28;20116;-44
2022/09/23 11:41:58;;;;;;;3.38;2.58;;;17.70;99.90;;;;;;5052372;28;20021;-46
2022/09/23 11:44:41;;;;;;;6.70;3.13;;;17.70;99.90;;;;;;5052360;28;20063;-49
2022/09/23 11:47:14;;;;;;;3.25;2.40;;;17.80;99.90;;;;;;5052276;28;20488;-43
2022/09/23 11:49:50;;;;;;;3.15;1.95;;;17.90;99.90;;;;;;5052780;28;20056;-51
2022/09/23 11:52:20;;;;;;;4.15;1.65;;;18.10;99.90;;;;;;5049719;28;20029;-52
2022/09/23 11:55:00;;;;;;;2.60;1.50;;;18.30;99.90;;;;;;5052563;28;20476;-44
2022/09/23 11:57:36;;;;;;;3.55;1.95;;;18.40;99.90;;;;;;5051808;28;20436;-47
2022/09/23 12:00:29;;;;;;;3.55;1.70;;;18.40;99.90;;;;;;5051903;28;20025;-43
2022/09/23 12:03:28;;;;;;;4.05;1.63;;;18.40;99.90;;;;;;5047206;28;20096;-50
2022/09/23 12:06:06;;;;;;;1.92;1.35;;;18.50;99.90;;;;;;5050686;28;20377;-45
2022/09/23 12:08:36;;;;;;;3.67;1.33;;;18.40;99.90;;;;;;5050719;28;20053;-42
2022/09/23 12:11:17;;;;;;;2.13;1.50;;;18.40;99.90;;;;;;5051370;28;20111;-50
2022/09/23 12:13:48;;;;;;;2.55;1.30;;;18.30;99.90;;;;;;5050580;28;20522;-44
2022/09/23 12:16:52;;;;;;;1.92;1.13;;;18.20;99.90;;;;;;5052821;28;20082;-44
2022/09/23 12:19:38;;;;;;;3.10;1.52;;;18.30;99.90;;;;;;5021133;28;20033;-44
2022/09/23 12:22:03;;;;;;;4.15;1.80;;;18.20;99.90;;;;;;5050672;28;20392;-45
2022/09/23 12:25:09;;;;;;;3.00;1.85;;;18.20;99.90;;;;;;5052332;28;20028;-44
2022/09/23 12:27:44;;;;;;;1.50;1.13;;;18.00;99.90;;;;;;5012786;28;20063;-44
2022/09/23 12:30:20;;;;;;;2.58;1.50;;;18.10;99.90;;;;;;5052196;28;20029;-44
2022/09/23 12:32:46;;;;;;;2.67;1.50;;;18.10;99.90;;;;;;5051415;28;20060;-44
2022/09/23 12:35:40;;;;;;;2.80;1.52;;;18.10;99.90;;;;;;5051325;28;20551;-43
2022/09/23 12:38:45;;;;;;;2.50;1.67;;;18.10;99.90;;;;;;5049981;28;20045;-49
2022/09/23 12:41:26;;;;;;;2.90;1.77;;;18.00;99.90;;;;;;5046629;28;20059;-44
2022/09/23 12:44:14;;;;;;;3.25;2.10;;;17.90;99.90;;;;;;5051257;28;21607;-43
2022/09/23 12:46:44;;;;;;;4.63;3.08;;;17.50;99.90;;;;;;5048703;28;20048;-48
2022/09/23 12:49:34;;;;;;;4.03;3.00;;;17.20;99.90;;;;;;5050906;28;20041;-45
2022/09/23 12:52:15;;;;;;;4.43;3.17;;;17.00;99.90;;;;;;5048949;28;20533;-48
2022/09/23 12:54:54;;;;;;;5.50;4.35;;;16.90;99.90;;;;;;5047644;28;20029;-42
2022/09/23 12:57:32;;;;;;;6.68;5.20;;;16.70;99.90;;;;;;5051403;28;20025;-48
2022/09/23 13:00:11;;;;;;;8.52;5.78;;;16.70;99.90;;;;;;5051436;28;20039;-43
2022/09/23 13:02:41;;;;;;;8.15;6.05;;;16.60;99.90;;;;;;5041978;28;20384;-50
2022/09/23 13:07:58;;;;;;;10.02;7.05;;;16.60;99.90;;;;;;5047330;28;20056;-45
2022/09/23 13:10:33;;;;;;;9.48;7.40;;;16.50;99.90;;;;;;5051323;28;20036;-45
2022/09/23 13:13:01;;;;;;;11.70;8.52;;;16.50;99.90;;;;;;5051486;28;20170;-45
2022/09/23 13:15:35;;;;;;;13.02;9.63;;;16.40;99.90;;;;;;5051213;28;20017;-44
2022/09/23 13:18:21;;;;;;;13.57;10.15;;;16.40;99.90;;;;;;5043546;28;20510;-46
2022/09/23 13:20:51;;;;;;;14.30;10.45;;;16.40;99.90;;;;;;5045063;28;20032;-45
2022/09/23 13:23:30;;;;;;;15.35;10.90;;;16.40;99.90;;;;;;5044125;28;20060;-44
2022/09/23 13:26:01;;;;;;;15.73;11.52;;;16.40;99.90;;;;;;5050830;28;20100;-44